Time;durP1;ratioP1;P1;durP2;ratioP2;P2;SDS_P1;SDS_P2;PMS_P1;PMS_P2;Temp;Humidity;BMP_temperature;BMP_pressure;BME280_temperature;BME280_humidity;BME280_pressure;Samples;Min_cycle;Max_cycle;Signal;HPM_P1;HPM_P2
2022/11/21 00:00:46;;;;;;;50.58;21.83;;;1.00;99.90;;;;;;5114609;27;20110;-47
2022/11/21 00:03:12;;;;;;;52.35;22.02;;;1.00;99.90;;;;;;5113247;28;20035;-48
2022/11/21 00:05:44;;;;;;;42.80;20.83;;;0.60;99.90;;;;;;5112835;28;20046;-49
2022/11/21 00:08:11;;;;;;;47.47;21.95;;;0.50;99.90;;;;;;5113659;27;20039;-45
2022/11/21 00:10:38;;;;;;;50.67;24.08;;;0.70;99.90;;;;;;5114001;27;20039;-46
2022/11/21 00:13:05;;;;;;;54.22;24.05;;;1.00;99.90;;;;;;5113439;27;20044;-46
2022/11/21 00:15:32;;;;;;;52.13;23.35;;;1.10;99.90;;;;;;5112557;28;20119;-48
2022/11/21 00:18:00;;;;;;;52.55;23.10;;;0.60;99.90;;;;;;5113617;27;20390;-50
2022/11/21 00:20:26;;;;;;;47.63;23.45;;;0.70;99.90;;;;;;5113344;27;20390;-47
2022/11/21 00:22:51;;;;;;;51.58;23.38;;;1.00;99.90;;;;;;5113117;27;20047;-46
2022/11/21 00:25:17;;;;;;;52.33;25.65;;;1.10;99.90;;;;;;5112681;28;20056;-46
2022/11/21 00:27:43;;;;;;;53.42;24.00;;;1.00;99.90;;;;;;5113346;27;20032;-46
2022/11/21 00:30:10;;;;;;;50.67;24.58;;;1.10;99.90;;;;;;5113074;28;20039;-48
2022/11/21 00:32:36;;;;;;;60.92;27.00;;;0.60;99.90;;;;;;5113096;28;20514;-45
2022/11/21 00:35:01;;;;;;;53.63;23.38;;;0.90;99.90;;;;;;5112870;28;20071;-48
2022/11/21 00:37:27;;;;;;;53.45;24.48;;;1.00;99.90;;;;;;5113165;28;20120;-46
2022/11/21 00:39:53;;;;;;;49.72;23.33;;;0.60;99.90;;;;;;5112896;27;20393;-49
2022/11/21 00:42:18;;;;;;;53.70;25.55;;;1.10;99.90;;;;;;5093468;28;20160;-47
2022/11/21 00:44:44;;;;;;;52.00;24.38;;;0.60;99.90;;;;;;5111875;28;20104;-48
2022/11/21 00:47:10;;;;;;;53.20;24.70;;;1.10;99.90;;;;;;5112232;28;20059;-49
2022/11/21 00:49:35;;;;;;;53.92;25.25;;;0.60;99.90;;;;;;5113493;27;20039;-45
2022/11/21 00:52:01;;;;;;;50.80;23.92;;;0.90;99.90;;;;;;5114585;27;20035;-49
2022/11/21 00:54:27;;;;;;;52.95;24.27;;;0.80;99.90;;;;;;5113630;27;20081;-47
2022/11/21 00:56:52;;;;;;;48.63;24.08;;;1.10;99.90;;;;;;5078550;27;20415;-47
2022/11/21 00:59:18;;;;;;;54.47;23.25;;;1.10;99.90;;;;;;5113150;27;20043;-44
2022/11/21 01:01:44;;;;;;;51.13;23.73;;;1.10;99.90;;;;;;5113462;27;20036;-47
2022/11/21 01:04:09;;;;;;;48.08;23.33;;;1.10;99.90;;;;;;5112942;27;20110;-45
2022/11/21 01:06:37;;;;;;;46.58;23.08;;;1.00;99.90;;;;;;5113106;27;20042;-45
2022/11/21 01:09:03;;;;;;;49.08;23.80;;;0.80;99.90;;;;;;5113501;27;20031;-47
2022/11/21 01:11:28;;;;;;;50.35;24.75;;;0.80;99.90;;;;;;5111385;27;20479;-46
2022/11/21 01:13:54;;;;;;;55.13;24.80;;;1.00;99.90;;;;;;5113352;27;20045;-47
2022/11/21 01:16:23;;;;;;;50.28;24.17;;;0.70;99.90;;;;;;5112626;27;20098;-46
2022/11/21 01:18:49;;;;;;;55.90;25.23;;;0.70;99.90;;;;;;5112279;27;20059;-46
2022/11/21 01:21:17;;;;;;;47.95;22.70;;;0.70;99.90;;;;;;5112514;28;20097;-46
2022/11/21 01:23:43;;;;;;;53.20;25.55;;;0.60;99.90;;;;;;5111995;27;20083;-47
2022/11/21 01:26:12;;;;;;;51.03;24.08;;;1.00;99.90;;;;;;5091595;27;20066;-47
2022/11/21 01:28:38;;;;;;;52.72;24.00;;;1.10;99.90;;;;;;5111191;28;20469;-47
2022/11/21 01:31:05;;;;;;;48.08;22.30;;;0.50;99.90;;;;;;5111312;28;20043;-47
2022/11/21 01:33:31;;;;;;;45.50;22.10;;;1.20;99.90;;;;;;5112763;27;20478;-47
2022/11/21 01:36:04;;;;;;;54.67;25.02;;;1.20;99.90;;;;;;5113101;27;20046;-47
2022/11/21 01:38:29;;;;;;;46.35;23.25;;;0.90;99.90;;;;;;5111702;27;20040;-49
2022/11/21 01:40:55;;;;;;;53.85;24.77;;;0.90;99.90;;;;;;5112271;27;20046;-46
2022/11/21 01:43:21;;;;;;;50.08;23.35;;;1.10;99.90;;;;;;5095188;28;20031;-49
2022/11/21 01:45:55;;;;;;;48.92;23.30;;;0.80;99.90;;;;;;5112237;27;20032;-46
2022/11/21 01:48:43;;;;;;;45.90;23.02;;;1.00;99.90;;;;;;5112744;27;20035;-45
2022/11/21 01:51:22;;;;;;;53.50;23.30;;;0.90;99.90;;;;;;5111332;27;20122;-48
2022/11/21 01:53:57;;;;;;;45.10;22.58;;;0.70;99.90;;;;;;5112009;27;20375;-49
2022/11/21 01:56:23;;;;;;;42.42;21.10;;;0.90;99.90;;;;;;5111321;27;20082;-47
2022/11/21 01:58:53;;;;;;;43.95;22.80;;;1.10;99.90;;;;;;5112341;27;20088;-47
2022/11/21 02:01:19;;;;;;;48.58;22.83;;;0.70;99.90;;;;;;5111404;27;20083;-46
2022/11/21 02:03:46;;;;;;;50.38;23.05;;;1.00;99.90;;;;;;5076633;28;20108;-47
2022/11/21 02:06:12;;;;;;;47.00;23.83;;;0.70;99.90;;;;;;5110306;28;20036;-48
2022/11/21 02:08:39;;;;;;;55.65;24.30;;;1.10;99.90;;;;;;5111597;27;20478;-45
2022/11/21 02:11:08;;;;;;;50.25;22.58;;;0.70;99.90;;;;;;5108576;28;20040;-46
2022/11/21 02:13:33;;;;;;;50.85;22.63;;;1.10;99.90;;;;;;5109071;28;20031;-47
2022/11/21 02:15:59;;;;;;;46.75;22.77;;;1.10;99.90;;;;;;5110586;28;20043;-46
2022/11/21 02:18:25;;;;;;;48.10;24.33;;;0.90;99.90;;;;;;5110599;27;20075;-45
2022/11/21 02:21:00;;;;;;;48.13;22.85;;;0.80;99.90;;;;;;5111563;27;20087;-48
2022/11/21 02:23:41;;;;;;;51.00;22.98;;;0.70;99.90;;;;;;5112841;27;20554;-47
2022/11/21 02:26:08;;;;;;;46.88;22.60;;;1.20;99.90;;;;;;5110715;28;20044;-48
2022/11/21 02:28:33;;;;;;;47.63;22.35;;;0.90;99.90;;;;;;5111812;28;20046;-48
2022/11/21 02:30:59;;;;;;;42.53;21.17;;;1.10;99.90;;;;;;5110730;28;20370;-46
2022/11/21 02:33:25;;;;;;;51.65;23.73;;;0.70;99.90;;;;;;5111711;28;20042;-49
2022/11/21 02:36:32;;;;;;;41.97;20.98;;;0.50;99.90;;;;;;5111991;28;20546;-46
2022/11/21 02:38:58;;;;;;;44.05;22.38;;;0.90;99.90;;;;;;5110490;28;20059;-49
2022/11/21 02:41:25;;;;;;;42.92;21.33;;;0.80;99.90;;;;;;5112225;28;20380;-46
2022/11/21 02:44:31;;;;;;;50.05;23.88;;;0.80;99.90;;;;;;5111367;28;20603;-45
2022/11/21 02:46:56;;;;;;;46.15;22.30;;;1.10;99.90;;;;;;5101881;28;20047;-45
2022/11/21 02:49:33;;;;;;;44.97;21.58;;;0.90;99.90;;;;;;5111097;28;20485;-46
2022/11/21 02:51:59;;;;;;;40.83;21.30;;;0.60;99.90;;;;;;5111273;28;20027;-47
2022/11/21 02:54:24;;;;;;;44.10;21.90;;;0.60;99.90;;;;;;5093044;28;20039;-48
2022/11/21 02:56:50;;;;;;;47.97;22.88;;;0.90;99.90;;;;;;5107349;28;20371;-46
2022/11/21 02:59:16;;;;;;;45.83;20.88;;;0.70;99.90;;;;;;5109857;28;20043;-46
2022/11/21 03:01:41;;;;;;;45.42;22.25;;;0.80;99.90;;;;;;5110459;28;20046;-46
2022/11/21 03:04:07;;;;;;;49.28;21.15;;;1.10;99.90;;;;;;5110864;28;20040;-48
2022/11/21 03:06:33;;;;;;;48.33;24.48;;;0.60;99.90;;;;;;5110663;28;20051;-47
2022/11/21 03:08:58;;;;;;;47.47;22.95;;;1.00;99.90;;;;;;5110784;28;20027;-45
2022/11/21 03:11:24;;;;;;;42.95;22.77;;;0.60;99.90;;;;;;5110371;28;20067;-47
2022/11/21 03:13:49;;;;;;;47.88;23.02;;;0.60;99.90;;;;;;5110206;28;20035;-45
2022/11/21 03:16:15;;;;;;;46.97;22.33;;;0.60;99.90;;;;;;5110531;28;20051;-46
2022/11/21 03:18:41;;;;;;;45.65;22.40;;;0.90;99.90;;;;;;5110422;28;20291;-46
2022/11/21 03:21:06;;;;;;;50.33;24.40;;;1.00;99.90;;;;;;5109513;28;20052;-47
2022/11/21 03:23:32;;;;;;;49.22;22.65;;;0.80;99.90;;;;;;5111047;28;20039;-45
2022/11/21 03:25:59;;;;;;;45.92;21.75;;;1.30;99.90;;;;;;5110542;28;20118;-47
2022/11/21 03:28:24;;;;;;;48.35;22.23;;;0.90;99.90;;;;;;5111380;28;20464;-48
2022/11/21 03:30:50;;;;;;;48.30;21.95;;;0.50;99.90;;;;;;5092453;28;20039;-46
2022/11/21 03:33:15;;;;;;;45.15;21.70;;;0.50;99.90;;;;;;5109244;28;20039;-47
2022/11/21 03:35:41;;;;;;;44.83;20.27;;;0.60;99.90;;;;;;5110987;28;20038;-46
2022/11/21 03:38:07;;;;;;;41.13;20.83;;;0.40;99.90;;;;;;5092073;28;20130;-49
2022/11/21 03:40:32;;;;;;;41.70;19.65;;;0.70;99.90;;;;;;5108232;28;20816;-48
2022/11/21 03:43:06;;;;;;;41.45;20.35;;;0.80;99.90;;;;;;5109588;28;20410;-46
2022/11/21 03:45:32;;;;;;;43.60;20.08;;;0.70;99.90;;;;;;5110131;28;20096;-47
2022/11/21 03:47:58;;;;;;;42.53;20.20;;;0.80;99.90;;;;;;5110185;28;20421;-47
2022/11/21 03:50:23;;;;;;;44.47;22.35;;;0.50;99.90;;;;;;5112278;27;20474;-47
2022/11/21 03:52:49;;;;;;;41.17;20.27;;;0.40;99.90;;;;;;5076852;28;20036;-47
2022/11/21 03:55:15;;;;;;;45.72;21.52;;;0.30;99.90;;;;;;5113700;28;20036;-47
2022/11/21 03:57:40;;;;;;;44.95;22.23;;;0.50;99.90;;;;;;5113345;28;20126;-47
2022/11/21 04:00:07;;;;;;;43.28;20.50;;;0.30;99.90;;;;;;5113838;27;20039;-48
2022/11/21 04:02:32;;;;;;;39.22;19.90;;;0.70;99.90;;;;;;5113270;28;20145;-46
2022/11/21 04:04:58;;;;;;;43.88;21.85;;;0.30;99.90;;;;;;5114564;27;20075;-47
2022/11/21 04:07:24;;;;;;;40.00;20.77;;;0.40;99.90;;;;;;5115743;27;20031;-46
2022/11/21 04:09:50;;;;;;;47.72;21.95;;;0.60;99.90;;;;;;5096018;28;20074;-47
2022/11/21 04:12:16;;;;;;;46.83;23.20;;;0.70;99.90;;;;;;5115445;27;20061;-46
2022/11/21 04:14:41;;;;;;;44.25;21.75;;;0.20;99.90;;;;;;5114344;27;20031;-48
2022/11/21 04:17:07;;;;;;;51.95;22.58;;;0.40;99.90;;;;;;5115172;27;20122;-45
2022/11/21 04:19:32;;;;;;;48.83;22.48;;;0.30;99.90;;;;;;5095725;28;20089;-45
2022/11/21 04:21:58;;;;;;;48.63;22.40;;;0.60;99.90;;;;;;5113732;27;20454;-45
2022/11/21 04:24:24;;;;;;;48.85;23.33;;;0.00;99.90;;;;;;5079516;28;20471;-45
2022/11/21 04:26:49;;;;;;;46.83;22.58;;;0.20;99.90;;;;;;5107377;27;20047;-48
2022/11/21 04:29:15;;;;;;;49.08;22.25;;;0.40;99.90;;;;;;5114173;27;20063;-47
2022/11/21 04:31:41;;;;;;;47.58;22.15;;;0.10;99.90;;;;;;5113525;27;20463;-45
2022/11/21 04:34:06;;;;;;;46.05;21.52;;;-0.10;99.90;;;;;;5095177;28;20516;-48
2022/11/21 04:36:32;;;;;;;44.08;22.08;;;0.10;99.90;;;;;;5113277;27;20035;-47
2022/11/21 04:38:58;;;;;;;46.33;21.60;;;0.30;99.90;;;;;;5112459;28;20383;-45
2022/11/21 04:41:23;;;;;;;51.60;23.60;;;0.30;99.90;;;;;;5103801;28;20042;-46
2022/11/21 04:43:49;;;;;;;43.03;21.35;;;-0.10;99.90;;;;;;5094585;28;20040;-46
2022/11/21 04:46:14;;;;;;;48.28;20.90;;;-0.20;99.90;;;;;;5112391;28;20039;-47
2022/11/21 04:48:40;;;;;;;52.55;22.05;;;0.30;99.90;;;;;;5113874;27;20032;-45
2022/11/21 04:51:06;;;;;;;45.72;21.30;;;-0.20;99.90;;;;;;5078394;28;20093;-47
2022/11/21 04:53:31;;;;;;;51.33;22.92;;;0.10;99.90;;;;;;5115023;27;20031;-49
2022/11/21 04:55:59;;;;;;;50.22;22.75;;;-0.10;99.90;;;;;;5113209;27;20054;-46
2022/11/21 04:58:24;;;;;;;47.85;20.73;;;0.20;99.90;;;;;;5114402;27;20055;-46
2022/11/21 05:00:50;;;;;;;48.20;20.88;;;-0.40;99.90;;;;;;5113157;27;20080;-46
2022/11/21 05:03:15;;;;;;;49.08;22.10;;;-0.30;99.90;;;;;;5078644;27;20035;-47
2022/11/21 05:05:41;;;;;;;43.42;20.60;;;-0.10;99.90;;;;;;5112814;27;20449;-47
2022/11/21 05:08:07;;;;;;;47.08;21.33;;;-0.30;99.90;;;;;;5113094;28;20029;-45
2022/11/21 05:13:19;;;;;;;48.42;21.60;;;-0.40;99.90;;;;;;5108677;27;20504;-47
2022/11/21 05:13:21;;;;;;;45.03;20.55;;;-0.20;99.90;;;;;;5109177;28;20406;-48
2022/11/21 05:15:50;;;;;;;45.00;20.88;;;-0.10;99.90;;;;;;5113569;27;20404;-46
2022/11/21 05:18:17;;;;;;;51.67;21.75;;;-0.50;99.90;;;;;;5094831;28;20047;-46
2022/11/21 05:20:43;;;;;;;45.88;21.33;;;-0.50;99.90;;;;;;5113087;27;20040;-48
2022/11/21 05:23:09;;;;;;;52.58;22.15;;;-0.60;99.90;;;;;;5114253;27;20028;-46
2022/11/21 05:25:34;;;;;;;47.83;20.67;;;-0.10;99.90;;;;;;5112578;27;20035;-46
2022/11/21 05:28:00;;;;;;;50.53;22.52;;;-0.30;99.90;;;;;;5113686;27;20038;-48
2022/11/21 05:30:26;;;;;;;51.72;22.58;;;-0.20;99.90;;;;;;5094194;28;20049;-45
2022/11/21 05:32:51;;;;;;;52.22;23.48;;;-0.50;99.90;;;;;;5113449;27;20445;-45
2022/11/21 05:35:17;;;;;;;48.80;21.35;;;-0.10;99.90;;;;;;5112489;27;20063;-45
2022/11/21 05:37:43;;;;;;;48.88;22.20;;;-0.10;99.90;;;;;;5112249;27;20040;-47
2022/11/21 05:40:09;;;;;;;50.55;22.05;;;-0.50;99.90;;;;;;5112514;27;20781;-47
2022/11/21 05:45:25;;;;;;;55.00;21.88;;;-0.10;99.90;;;;;;5112528;27;20047;-45
2022/11/21 05:47:51;;;;;;;52.22;22.52;;;-0.50;99.90;;;;;;5112113;28;20039;-49
2022/11/21 05:50:17;;;;;;;49.97;21.98;;;-0.70;99.90;;;;;;5112222;27;20088;-46
2022/11/21 05:52:42;;;;;;;48.75;21.98;;;0.10;99.90;;;;;;5106678;28;20501;-46
2022/11/21 05:55:08;;;;;;;49.03;21.58;;;-0.20;99.90;;;;;;5110884;28;20084;-46
2022/11/21 05:57:34;;;;;;;51.20;22.60;;;-0.30;99.90;;;;;;5092005;28;20050;-50
2022/11/21 05:59:59;;;;;;;52.42;22.92;;;-0.40;99.90;;;;;;5111161;27;20070;-47
2022/11/21 06:05:09;;;;;;;49.45;22.10;;;-0.40;99.90;;;;;;5092820;28;20124;-47
2022/11/21 06:07:35;;;;;;;48.58;21.73;;;-0.40;99.90;;;;;;5112396;27;20488;-46
2022/11/21 06:10:00;;;;;;;49.47;21.60;;;-0.40;99.90;;;;;;5109445;27;20027;-47
2022/11/21 06:12:26;;;;;;;53.33;23.45;;;-0.40;99.90;;;;;;5111809;27;20035;-46
2022/11/21 06:14:51;;;;;;;48.58;21.80;;;-0.30;99.90;;;;;;5111894;28;20080;-47
2022/11/21 06:17:17;;;;;;;48.88;22.67;;;-0.40;99.90;;;;;;5112125;27;20043;-46
2022/11/21 06:19:43;;;;;;;51.70;22.67;;;-0.40;99.90;;;;;;5094391;28;20164;-45
2022/11/21 06:22:08;;;;;;;47.83;21.20;;;-0.50;99.90;;;;;;5111663;27;20395;-47
2022/11/21 06:24:34;;;;;;;46.45;22.35;;;-0.70;99.90;;;;;;5092549;28;20039;-45
2022/11/21 06:27:00;;;;;;;47.50;20.08;;;-0.20;99.90;;;;;;5111112;28;20047;-48
2022/11/21 06:29:25;;;;;;;45.78;20.17;;;-1.00;99.90;;;;;;5112374;28;20039;-47
2022/11/21 06:31:51;;;;;;;128.90;22.27;;;-0.80;99.90;;;;;;5111043;28;20042;-46
2022/11/21 06:34:17;;;;;;;143.07;21.67;;;-0.60;99.90;;;;;;5108585;28;20096;-46
2022/11/21 06:36:43;;;;;;;184.65;23.33;;;-0.80;99.90;;;;;;5093653;28;20031;-48
2022/11/21 06:39:09;;;;;;;165.05;22.25;;;-0.60;99.90;;;;;;5110846;28;20046;-46
2022/11/21 06:41:34;;;;;;;153.65;21.70;;;-0.90;99.90;;;;;;5106890;28;20035;-47
2022/11/21 06:44:00;;;;;;;134.07;25.15;;;-0.60;99.90;;;;;;5092910;28;20509;-47
2022/11/21 06:46:26;;;;;;;166.52;23.85;;;-0.50;99.90;;;;;;5110548;28;20040;-45
2022/11/21 06:48:53;;;;;;;145.82;25.55;;;-1.00;99.90;;;;;;5110560;28;20036;-47
2022/11/21 06:51:21;;;;;;;166.13;24.85;;;-0.50;99.90;;;;;;5110854;28;20039;-47
2022/11/21 06:53:54;;;;;;;144.95;25.17;;;-0.90;99.90;;;;;;5110969;28;20123;-48
2022/11/21 06:56:21;;;;;;;111.78;23.92;;;-0.50;99.90;;;;;;5110386;28;20051;-47
2022/11/21 06:58:46;;;;;;;160.93;24.25;;;-0.90;99.90;;;;;;5110632;28;20039;-47
2022/11/21 07:01:13;;;;;;;120.60;25.60;;;-0.80;99.90;;;;;;5110673;28;20039;-45
2022/11/21 07:03:38;;;;;;;115.53;27.10;;;-0.60;99.90;;;;;;5110582;28;20036;-44
2022/11/21 07:06:05;;;;;;;153.05;25.63;;;-0.50;99.90;;;;;;5110513;28;20160;-46
2022/11/21 07:08:34;;;;;;;110.97;24.33;;;-0.70;99.90;;;;;;5110560;28;20112;-47
2022/11/21 07:11:04;;;;;;;203.48;28.45;;;-0.50;99.90;;;;;;5111831;28;20032;-47
2022/11/21 07:13:31;;;;;;;170.43;24.90;;;-0.60;99.90;;;;;;5111479;28;20043;-47
2022/11/21 07:16:08;;;;;;;106.72;22.33;;;-0.70;99.90;;;;;;5112621;28;20043;-45
2022/11/21 07:18:34;;;;;;;121.90;22.92;;;-0.20;99.90;;;;;;5111607;28;20063;-46
2022/11/21 07:21:05;;;;;;;92.03;21.75;;;-0.10;99.90;;;;;;5108603;28;20062;-47
2022/11/21 07:23:32;;;;;;;67.82;17.95;;;-0.10;99.90;;;;;;5108859;28;20040;-46
2022/11/21 07:26:06;;;;;;;72.28;18.73;;;-0.60;99.90;;;;;;5111891;27;20109;-47
2022/11/21 07:28:32;;;;;;;102.90;18.63;;;-0.70;99.90;;;;;;5112591;27;20053;-48
2022/11/21 07:30:59;;;;;;;96.03;20.33;;;-0.40;99.90;;;;;;5115731;27;20028;-47
2022/11/21 07:33:26;;;;;;;91.20;19.50;;;-0.40;99.90;;;;;;5115101;27;20067;-47
2022/11/21 07:35:54;;;;;;;86.47;19.33;;;-0.40;99.90;;;;;;5114925;27;20478;-47
2022/11/21 07:38:19;;;;;;;83.38;18.52;;;-0.70;99.90;;;;;;5114276;27;20079;-49
2022/11/21 07:40:45;;;;;;;91.90;17.33;;;-0.20;99.90;;;;;;5114337;27;20079;-47
2022/11/21 07:43:11;;;;;;;62.17;17.63;;;-0.10;99.90;;;;;;5112528;27;20044;-49
2022/11/21 07:45:37;;;;;;;65.28;17.95;;;-0.10;99.90;;;;;;5113931;27;20110;-48
2022/11/21 07:48:05;;;;;;;78.32;17.63;;;-0.60;99.90;;;;;;5113948;27;20036;-47
2022/11/21 07:50:31;;;;;;;66.07;17.30;;;-0.50;99.90;;;;;;5114844;27;20116;-48
2022/11/21 07:53:01;;;;;;;66.38;18.55;;;-0.60;99.90;;;;;;5114063;27;20031;-48
2022/11/21 07:55:30;;;;;;;59.92;16.38;;;0.00;99.90;;;;;;5113974;27;20043;-48
2022/11/21 07:58:12;;;;;;;76.90;17.48;;;-0.10;99.90;;;;;;5114067;27;20036;-46
2022/11/21 08:00:41;;;;;;;78.18;18.75;;;-0.60;99.90;;;;;;5113714;28;20067;-45
2022/11/21 08:03:07;;;;;;;82.30;15.98;;;-0.10;99.90;;;;;;5113060;28;20104;-46
2022/11/21 08:05:37;;;;;;;74.57;17.13;;;-0.50;99.90;;;;;;5095958;28;20048;-47
2022/11/21 08:08:03;;;;;;;132.88;17.60;;;0.00;99.90;;;;;;5112643;27;20463;-48
2022/11/21 08:10:28;;;;;;;114.32;18.48;;;0.10;99.90;;;;;;5107650;28;20035;-47
2022/11/21 08:12:54;;;;;;;111.95;18.45;;;-0.60;99.90;;;;;;5073381;28;20044;-47
2022/11/21 08:15:20;;;;;;;98.70;17.95;;;0.00;99.90;;;;;;5074822;28;20088;-46
2022/11/21 08:17:45;;;;;;;99.13;17.40;;;0.10;99.90;;;;;;5109272;27;20436;-47
2022/11/21 08:20:11;;;;;;;118.75;17.88;;;-0.30;99.90;;;;;;5085613;28;20443;-46
2022/11/21 08:22:41;;;;;;;84.28;17.52;;;0.10;99.90;;;;;;5103830;27;20051;-46
2022/11/21 08:25:08;;;;;;;68.70;15.07;;;-0.40;99.90;;;;;;5105056;27;20077;-47
2022/11/21 08:27:35;;;;;;;74.78;15.77;;;-0.10;99.90;;;;;;5102486;28;21067;-46
2022/11/21 08:30:00;;;;;;;105.28;16.92;;;-0.50;99.90;;;;;;5101222;27;20040;-45
2022/11/21 08:32:26;;;;;;;87.40;14.52;;;-0.40;99.90;;;;;;5084575;28;20179;-46
2022/11/21 08:34:52;;;;;;;71.65;15.60;;;-0.30;99.90;;;;;;5103149;28;20530;-47
2022/11/21 08:37:17;;;;;;;94.07;17.98;;;-0.10;99.90;;;;;;5104092;28;20557;-46
2022/11/21 08:39:43;;;;;;;67.68;18.17;;;0.20;99.90;;;;;;5101645;28;20066;-46
2022/11/21 08:42:09;;;;;;;68.38;17.25;;;0.00;99.90;;;;;;5102823;28;20490;-46
2022/11/21 08:44:35;;;;;;;71.60;17.83;;;0.20;99.90;;;;;;5103250;28;20105;-45
2022/11/21 08:47:01;;;;;;;74.97;18.45;;;-0.40;99.90;;;;;;5103161;28;20039;-49
2022/11/21 08:49:27;;;;;;;68.85;18.60;;;0.30;99.90;;;;;;5103362;28;20035;-46
2022/11/21 08:51:53;;;;;;;45.60;16.17;;;0.30;99.90;;;;;;5102638;28;20032;-46
2022/11/21 08:54:21;;;;;;;48.53;17.30;;;-0.20;99.90;;;;;;5099849;28;20068;-45
2022/11/21 08:56:48;;;;;;;49.20;16.02;;;-0.10;99.90;;;;;;5101601;28;20429;-47
2022/11/21 08:59:14;;;;;;;60.38;17.35;;;-0.20;99.90;;;;;;5099001;27;20047;-46
2022/11/21 09:01:40;;;;;;;88.75;20.85;;;-0.10;99.90;;;;;;5101890;28;20430;-45
2022/11/21 09:04:07;;;;;;;55.35;18.10;;;-0.20;99.90;;;;;;5103244;28;20076;-46
2022/11/21 09:06:32;;;;;;;71.88;19.08;;;0.40;99.90;;;;;;5103112;28;20054;-45
2022/11/21 09:08:58;;;;;;;57.55;18.75;;;0.00;99.90;;;;;;5101717;28;20032;-46
2022/11/21 09:11:24;;;;;;;64.35;19.08;;;-0.20;99.90;;;;;;5101433;27;20055;-46
2022/11/21 09:19:21;;;;;;;55.90;18.10;;;0.00;99.90;;;;;;5102638;28;20054;-49
2022/11/21 09:21:50;;;;;;;47.78;17.77;;;0.00;99.90;;;;;;5101936;28;20059;-46
2022/11/21 09:24:17;;;;;;;51.63;20.25;;;0.00;99.90;;;;;;5102220;28;20047;-45
2022/11/21 09:26:43;;;;;;;53.28;18.15;;;0.10;99.90;;;;;;5102126;28;20505;-46
2022/11/21 09:29:10;;;;;;;48.58;18.67;;;0.60;99.90;;;;;;5082912;28;20106;-48
2022/11/21 09:31:38;;;;;;;48.03;18.45;;;0.50;99.90;;;;;;5083103;28;20038;-47
2022/11/21 09:34:03;;;;;;;47.25;17.02;;;1.20;99.90;;;;;;5102413;28;20035;-46
2022/11/21 09:36:29;;;;;;;43.83;17.92;;;0.20;99.90;;;;;;5102248;28;20043;-46
2022/11/21 09:38:54;;;;;;;45.63;18.27;;;0.40;99.90;;;;;;5083483;28;20122;-46
2022/11/21 09:41:51;;;;;;;48.63;18.67;;;0.40;99.90;;;;;;5101180;28;20361;-46
2022/11/21 09:44:39;;;;;;;51.03;19.77;;;0.60;99.90;;;;;;5101246;28;20465;-49
2022/11/21 09:47:16;;;;;;;57.70;20.73;;;0.70;99.90;;;;;;5101976;28;20036;-46
2022/11/21 09:49:48;;;;;;;51.97;18.85;;;1.30;99.90;;;;;;5101049;28;20035;-47
2022/11/21 09:52:18;;;;;;;48.78;20.58;;;0.70;99.90;;;;;;5102524;28;20035;-47
2022/11/21 09:54:52;;;;;;;55.25;19.83;;;1.20;99.90;;;;;;5101475;28;20043;-47
2022/11/21 09:57:23;;;;;;;52.23;20.13;;;0.70;99.90;;;;;;5101635;28;20031;-50
2022/11/21 09:59:50;;;;;;;47.60;19.58;;;1.00;99.90;;;;;;5082435;28;20066;-48
2022/11/21 10:02:22;;;;;;;51.67;21.17;;;0.70;99.90;;;;;;5101932;28;20036;-47
2022/11/21 10:04:49;;;;;;;56.13;21.23;;;1.00;99.90;;;;;;5098088;27;20023;-47
2022/11/21 10:07:21;;;;;;;48.63;19.85;;;0.70;99.90;;;;;;5100660;27;20144;-46
2022/11/21 10:09:52;;;;;;;50.78;20.10;;;0.80;99.90;;;;;;5100691;27;20550;-49
2022/11/21 10:12:36;;;;;;;51.80;22.85;;;1.00;99.90;;;;;;5083406;28;20035;-47
2022/11/21 10:15:14;;;;;;;47.20;20.52;;;0.90;99.90;;;;;;5101504;28;20502;-46
2022/11/21 10:17:53;;;;;;;49.25;20.27;;;1.50;99.90;;;;;;5066203;27;20043;-48
2022/11/21 10:20:28;;;;;;;53.58;22.48;;;0.80;99.90;;;;;;5101545;27;20152;-46
2022/11/21 10:23:15;;;;;;;45.20;20.40;;;1.50;99.90;;;;;;5100846;28;20127;-46
2022/11/21 10:25:49;;;;;;;45.17;18.80;;;0.90;99.90;;;;;;5083561;28;20054;-46
2022/11/21 10:28:39;;;;;;;49.53;20.65;;;0.90;99.90;;;;;;5101270;28;20040;-49
2022/11/21 10:31:10;;;;;;;45.50;19.40;;;0.90;99.90;;;;;;5101696;28;20035;-46
2022/11/21 10:33:39;;;;;;;45.33;19.80;;;1.60;99.90;;;;;;5066108;28;20122;-47
2022/11/21 10:36:24;;;;;;;50.30;20.95;;;0.90;99.90;;;;;;5102118;28;20051;-48
2022/11/21 10:38:57;;;;;;;39.30;17.77;;;0.90;99.90;;;;;;5083871;28;20036;-47
2022/11/21 10:41:46;;;;;;;49.72;20.80;;;1.00;99.90;;;;;;5102147;28;20408;-49
2022/11/21 10:47:26;;;;;;;47.80;19.70;;;1.60;99.90;;;;;;5101029;28;20074;-48
2022/11/21 10:50:24;;;;;;;45.92;20.02;;;1.20;99.90;;;;;;5100038;28;20059;-46
2022/11/21 10:54:31;;;;;;;49.35;18.73;;;1.60;99.90;;;;;;5075230;28;20046;-46
2022/11/21 10:56:07;;;;;;;50.28;19.42;;;1.20;99.90;;;;;;5102302;28;20163;-48
2022/11/21 10:58:50;;;;;;;42.00;18.42;;;1.60;99.90;;;;;;5102654;28;20085;-50
2022/11/21 11:01:23;;;;;;;49.83;21.70;;;1.60;99.90;;;;;;5104673;27;20093;-46
2022/11/21 11:04:11;;;;;;;54.72;23.08;;;1.10;99.90;;;;;;5104768;27;20050;-47
2022/11/21 11:06:42;;;;;;;44.15;18.70;;;1.10;99.90;;;;;;5104800;27;20474;-48
2022/11/21 11:09:31;;;;;;;45.70;20.42;;;1.60;99.90;;;;;;5105080;28;20039;-47
2022/11/21 11:12:22;;;;;;;45.53;21.48;;;1.20;99.90;;;;;;5104199;28;20035;-46
2022/11/21 11:14:53;;;;;;;51.13;22.20;;;2.20;99.90;;;;;;5105378;27;20028;-48
2022/11/21 11:17:31;;;;;;;54.05;21.02;;;1.40;99.90;;;;;;5105009;27;20460;-48
2022/11/21 11:20:03;;;;;;;49.47;21.70;;;1.80;99.90;;;;;;5104679;27;20114;-48
2022/11/21 11:22:30;;;;;;;49.25;20.95;;;1.80;99.90;;;;;;5103182;28;20130;-48
2022/11/21 11:24:56;;;;;;;41.60;18.90;;;1.20;99.90;;;;;;5105061;27;20040;-45
2022/11/21 11:27:28;;;;;;;50.25;20.85;;;1.30;99.90;;;;;;5103900;27;20390;-47
2022/11/21 11:29:54;;;;;;;49.03;21.02;;;1.20;99.90;;;;;;5103699;27;20126;-46
2022/11/21 11:32:20;;;;;;;41.88;19.08;;;1.30;99.90;;;;;;5104470;28;20599;-47
2022/11/21 11:34:49;;;;;;;49.67;21.48;;;1.30;99.90;;;;;;5097397;27;20047;-44
2022/11/21 11:37:35;;;;;;;48.03;19.48;;;1.90;99.90;;;;;;5081652;28;20672;-45
2022/11/21 11:40:21;;;;;;;46.80;20.73;;;1.40;99.90;;;;;;5104441;27;20035;-46
2022/11/21 11:48:38;;;;;;;41.63;19.03;;;1.70;99.90;;;;;;5104372;27;20074;-50
2022/11/21 11:51:22;;;;;;;47.35;20.55;;;1.50;99.90;;;;;;5103460;28;20475;-47
2022/11/21 11:53:56;;;;;;;43.55;19.17;;;2.60;99.90;;;;;;5103163;27;20107;-47
2022/11/21 11:56:42;;;;;;;48.30;20.48;;;2.50;99.90;;;;;;5103762;27;20441;-49
2022/11/21 11:59:44;;;;;;;42.15;19.48;;;2.50;99.90;;;;;;5104257;28;20040;-46
2022/11/21 12:02:22;;;;;;;49.15;20.67;;;2.30;99.90;;;;;;5071057;28;20194;-48
2022/11/21 12:04:55;;;;;;;41.80;19.73;;;2.50;99.90;;;;;;5102936;28;20028;-46
2022/11/21 12:07:29;;;;;;;46.92;20.38;;;2.30;99.90;;;;;;5102129;28;20066;-48
2022/11/21 12:10:22;;;;;;;38.30;18.50;;;2.00;99.90;;;;;;5082823;28;20043;-49
2022/11/21 12:12:55;;;;;;;39.00;18.50;;;2.70;99.90;;;;;;5102928;28;20046;-45
2022/11/21 12:15:49;;;;;;;39.40;17.50;;;2.20;99.90;;;;;;5102473;28;20088;-46
2022/11/21 12:18:20;;;;;;;40.97;17.73;;;2.70;99.90;;;;;;5100608;28;20419;-50
2022/11/21 12:20:55;;;;;;;34.22;16.70;;;2.10;99.90;;;;;;5096679;28;20043;-47
2022/11/21 12:23:24;;;;;;;40.17;16.48;;;2.30;99.90;;;;;;5098775;28;20478;-46
2022/11/21 12:26:10;;;;;;;41.53;18.35;;;2.10;99.90;;;;;;5100083;28;20032;-46
2022/11/21 12:28:54;;;;;;;42.92;18.00;;;2.70;99.90;;;;;;5083480;28;20046;-46
2022/11/21 12:31:46;;;;;;;47.25;19.35;;;2.40;99.90;;;;;;5098722;28;20055;-46
2022/11/21 12:34:27;;;;;;;46.13;18.25;;;2.50;99.90;;;;;;5063006;28;20037;-46
2022/11/21 12:37:03;;;;;;;44.58;17.52;;;2.30;99.90;;;;;;5101835;27;20036;-48
2022/11/21 12:39:35;;;;;;;44.63;18.80;;;2.10;99.90;;;;;;5104075;28;20282;-46
2022/11/21 12:42:48;;;;;;;50.75;19.65;;;2.30;99.90;;;;;;5103805;27;20070;-46
2022/11/21 12:45:31;;;;;;;47.40;18.40;;;2.70;99.90;;;;;;5102510;27;20036;-46
2022/11/21 12:54:34;;;;;;;54.25;19.67;;;2.20;99.90;;;;;;5102665;27;20036;-47
2022/11/21 12:57:15;;;;;;;56.85;21.42;;;2.80;99.90;;;;;;5103952;27;20040;-45
2022/11/21 13:00:10;;;;;;;63.08;20.63;;;2.40;99.90;;;;;;5102996;27;20421;-46
2022/11/21 13:02:55;;;;;;;65.72;20.85;;;2.90;99.90;;;;;;5096709;28;20100;-46
2022/11/21 13:05:27;;;;;;;68.15;22.73;;;2.40;99.90;;;;;;5083166;28;20507;-44
2022/11/21 13:08:18;;;;;;;63.03;21.35;;;2.80;99.90;;;;;;5095567;28;20077;-48
2022/11/21 13:14:03;;;;;;;70.15;22.20;;;2.50;99.90;;;;;;5098729;28;20039;-46
2022/11/21 13:16:38;;;;;;;72.10;23.80;;;2.40;99.90;;;;;;5097562;27;20039;-47